Terminal Aerodrome Forecast
Issued by NWS

Current Version | Previous Version | Graphics & Text | Print | Product List | Glossary On
Versions: 1 2 3 4 5 6 7 8 9 10 11 12 13 14 15 16 17 18 19
060
FTUS41 KILN 201124
TAFLCK
TAF
KLCK 201124Z 2012/2112 18004KT P6SM SCT070 BKN250
     FM201400 21011G19KT P6SM SCT070 BKN250
     FM201800 22018G28KT P6SM SCT050 BKN250
     FM210100 23014G20KT P6SM -SHRA VCTS BKN040CB
      TEMPO 2103/2105 3SM -TSRA BKN030CB
     FM210700 29009KT P6SM BKN015=

USA.gov is the U.S. government's official web portal to all federal, state and local government web resources and services.